sensor_id;sensor_type;location;lat;lon;timestamp;P1;durP1;ratioP1;P2;durP2;ratioP2
70908;SDS011;58554;52.006;5.926;2023-05-23T00:00:42;9.87;;;5.20;;
70908;SDS011;58554;52.006;5.926;2023-05-23T00:03:09;8.77;;;5.38;;
70908;SDS011;58554;52.006;5.926;2023-05-23T00:05:36;8.73;;;5.30;;
70908;SDS011;58554;52.006;5.926;2023-05-23T00:08:05;8.45;;;5.05;;
70908;SDS011;58554;52.006;5.926;2023-05-23T00:10:31;8.77;;;5.55;;
70908;SDS011;58554;52.006;5.926;2023-05-23T00:12:58;9.57;;;5.65;;
70908;SDS011;58554;52.006;5.926;2023-05-23T00:15:24;9.48;;;5.53;;
70908;SDS011;58554;52.006;5.926;2023-05-23T00:17:50;10.00;;;5.90;;
70908;SDS011;58554;52.006;5.926;2023-05-23T00:20:17;9.57;;;6.03;;
70908;SDS011;58554;52.006;5.926;2023-05-23T00:22:44;9.25;;;5.57;;
70908;SDS011;58554;52.006;5.926;2023-05-23T00:25:13;9.55;;;5.88;;
70908;SDS011;58554;52.006;5.926;2023-05-23T00:27:39;11.13;;;6.28;;
70908;SDS011;58554;52.006;5.926;2023-05-23T00:30:07;10.38;;;6.25;;
70908;SDS011;58554;52.006;5.926;2023-05-23T00:32:34;11.17;;;6.00;;
70908;SDS011;58554;52.006;5.926;2023-05-23T00:35:00;10.50;;;5.93;;
70908;SDS011;58554;52.006;5.926;2023-05-23T00:37:27;9.93;;;6.32;;
70908;SDS011;58554;52.006;5.926;2023-05-23T00:39:53;10.98;;;6.30;;
70908;SDS011;58554;52.006;5.926;2023-05-23T00:42:22;11.98;;;6.88;;
70908;SDS011;58554;52.006;5.926;2023-05-23T00:44:49;11.30;;;6.90;;
70908;SDS011;58554;52.006;5.926;2023-05-23T00:47:15;11.87;;;6.90;;
70908;SDS011;58554;52.006;5.926;2023-05-23T00:49:43;10.60;;;7.40;;
70908;SDS011;58554;52.006;5.926;2023-05-23T00:52:10;12.30;;;6.95;;
70908;SDS011;58554;52.006;5.926;2023-05-23T00:54:37;11.82;;;6.82;;
70908;SDS011;58554;52.006;5.926;2023-05-23T00:57:04;13.40;;;7.10;;
70908;SDS011;58554;52.006;5.926;2023-05-23T00:59:35;10.88;;;7.00;;
70908;SDS011;58554;52.006;5.926;2023-05-23T01:02:03;13.43;;;6.57;;
70908;SDS011;58554;52.006;5.926;2023-05-23T01:04:30;11.85;;;6.78;;
70908;SDS011;58554;52.006;5.926;2023-05-23T01:06:57;10.23;;;6.40;;
70908;SDS011;58554;52.006;5.926;2023-05-23T01:09:24;9.18;;;6.43;;
70908;SDS011;58554;52.006;5.926;2023-05-23T01:11:56;11.38;;;6.00;;
70908;SDS011;58554;52.006;5.926;2023-05-23T01:14:46;9.70;;;5.87;;
70908;SDS011;58554;52.006;5.926;2023-05-23T01:17:25;10.70;;;6.10;;
70908;SDS011;58554;52.006;5.926;2023-05-23T01:20:05;9.83;;;5.47;;
70908;SDS011;58554;52.006;5.926;2023-05-23T01:22:40;9.27;;;5.55;;
70908;SDS011;58554;52.006;5.926;2023-05-23T01:25:32;10.00;;;5.57;;
70908;SDS011;58554;52.006;5.926;2023-05-23T01:28:21;10.97;;;5.50;;
70908;SDS011;58554;52.006;5.926;2023-05-23T01:30:57;10.05;;;5.18;;
70908;SDS011;58554;52.006;5.926;2023-05-23T01:33:28;10.07;;;5.32;;
70908;SDS011;58554;52.006;5.926;2023-05-23T01:35:58;9.73;;;5.40;;
70908;SDS011;58554;52.006;5.926;2023-05-23T01:38:27;9.03;;;5.33;;
70908;SDS011;58554;52.006;5.926;2023-05-23T01:40:54;9.27;;;5.22;;
70908;SDS011;58554;52.006;5.926;2023-05-23T01:43:23;8.50;;;5.28;;
70908;SDS011;58554;52.006;5.926;2023-05-23T01:45:51;7.97;;;5.07;;
70908;SDS011;58554;52.006;5.926;2023-05-23T01:48:20;10.40;;;5.35;;
70908;SDS011;58554;52.006;5.926;2023-05-23T01:50:51;8.93;;;5.03;;
70908;SDS011;58554;52.006;5.926;2023-05-23T01:53:19;8.63;;;4.82;;
70908;SDS011;58554;52.006;5.926;2023-05-23T01:55:48;8.45;;;5.20;;
70908;SDS011;58554;52.006;5.926;2023-05-23T01:58:16;9.40;;;5.28;;
70908;SDS011;58554;52.006;5.926;2023-05-23T02:00:46;8.53;;;4.80;;
70908;SDS011;58554;52.006;5.926;2023-05-23T02:03:13;9.37;;;5.57;;
70908;SDS011;58554;52.006;5.926;2023-05-23T02:05:39;9.35;;;4.95;;
70908;SDS011;58554;52.006;5.926;2023-05-23T02:08:06;7.57;;;4.72;;
70908;SDS011;58554;52.006;5.926;2023-05-23T02:10:32;8.63;;;5.28;;
70908;SDS011;58554;52.006;5.926;2023-05-23T02:12:59;8.63;;;4.63;;
70908;SDS011;58554;52.006;5.926;2023-05-23T02:15:25;8.73;;;4.83;;
70908;SDS011;58554;52.006;5.926;2023-05-23T02:17:54;8.50;;;4.87;;
70908;SDS011;58554;52.006;5.926;2023-05-23T02:20:21;8.67;;;4.80;;
70908;SDS011;58554;52.006;5.926;2023-05-23T02:22:47;8.30;;;5.18;;
70908;SDS011;58554;52.006;5.926;2023-05-23T02:25:14;7.47;;;4.70;;
70908;SDS011;58554;52.006;5.926;2023-05-23T02:27:40;10.07;;;5.32;;
70908;SDS011;58554;52.006;5.926;2023-05-23T02:30:07;9.93;;;5.53;;
70908;SDS011;58554;52.006;5.926;2023-05-23T02:32:35;9.68;;;5.40;;
70908;SDS011;58554;52.006;5.926;2023-05-23T02:35:04;10.57;;;5.25;;
70908;SDS011;58554;52.006;5.926;2023-05-23T02:37:32;10.53;;;6.00;;
70908;SDS011;58554;52.006;5.926;2023-05-23T02:39:59;9.05;;;5.45;;
70908;SDS011;58554;52.006;5.926;2023-05-23T02:42:25;10.43;;;5.60;;
70908;SDS011;58554;52.006;5.926;2023-05-23T02:44:52;10.07;;;5.72;;
70908;SDS011;58554;52.006;5.926;2023-05-23T02:47:18;12.37;;;6.20;;
70908;SDS011;58554;52.006;5.926;2023-05-23T02:49:45;10.20;;;6.27;;
70908;SDS011;58554;52.006;5.926;2023-05-23T02:52:14;10.63;;;5.83;;
70908;SDS011;58554;52.006;5.926;2023-05-23T02:54:40;10.43;;;5.90;;
70908;SDS011;58554;52.006;5.926;2023-05-23T02:57:07;9.35;;;6.18;;
70908;SDS011;58554;52.006;5.926;2023-05-23T02:59:33;10.90;;;5.67;;
70908;SDS011;58554;52.006;5.926;2023-05-23T03:02:00;13.43;;;5.80;;
70908;SDS011;58554;52.006;5.926;2023-05-23T03:04:26;10.57;;;5.80;;
70908;SDS011;58554;52.006;5.926;2023-05-23T03:06:53;10.77;;;5.82;;
70908;SDS011;58554;52.006;5.926;2023-05-23T03:09:22;12.70;;;5.97;;
70908;SDS011;58554;52.006;5.926;2023-05-23T03:11:48;10.02;;;5.35;;
70908;SDS011;58554;52.006;5.926;2023-05-23T03:14:15;10.67;;;5.90;;
70908;SDS011;58554;52.006;5.926;2023-05-23T03:16:42;10.25;;;5.50;;
70908;SDS011;58554;52.006;5.926;2023-05-23T03:19:08;9.03;;;5.73;;
70908;SDS011;58554;52.006;5.926;2023-05-23T03:21:34;9.10;;;5.27;;
70908;SDS011;58554;52.006;5.926;2023-05-23T03:24:01;8.90;;;4.97;;
70908;SDS011;58554;52.006;5.926;2023-05-23T03:26:30;8.70;;;4.85;;
70908;SDS011;58554;52.006;5.926;2023-05-23T03:28:57;7.43;;;4.65;;
70908;SDS011;58554;52.006;5.926;2023-05-23T03:31:23;8.47;;;4.87;;
70908;SDS011;58554;52.006;5.926;2023-05-23T03:33:50;7.50;;;4.53;;
70908;SDS011;58554;52.006;5.926;2023-05-23T03:36:16;8.02;;;4.72;;
70908;SDS011;58554;52.006;5.926;2023-05-23T03:38:43;7.80;;;4.63;;
70908;SDS011;58554;52.006;5.926;2023-05-23T03:41:09;11.02;;;5.10;;
70908;SDS011;58554;52.006;5.926;2023-05-23T03:43:38;8.40;;;4.82;;
70908;SDS011;58554;52.006;5.926;2023-05-23T03:46:05;7.28;;;4.40;;
70908;SDS011;58554;52.006;5.926;2023-05-23T03:48:31;8.32;;;4.65;;
70908;SDS011;58554;52.006;5.926;2023-05-23T03:50:58;9.90;;;5.30;;
70908;SDS011;58554;52.006;5.926;2023-05-23T03:53:24;8.23;;;5.25;;
70908;SDS011;58554;52.006;5.926;2023-05-23T03:55:51;9.43;;;5.20;;
70908;SDS011;58554;52.006;5.926;2023-05-23T03:58:17;9.75;;;5.07;;
70908;SDS011;58554;52.006;5.926;2023-05-23T04:00:46;9.35;;;5.22;;
70908;SDS011;58554;52.006;5.926;2023-05-23T04:03:13;9.63;;;5.43;;
70908;SDS011;58554;52.006;5.926;2023-05-23T04:05:40;7.85;;;5.57;;
70908;SDS011;58554;52.006;5.926;2023-05-23T04:08:07;9.00;;;5.43;;
70908;SDS011;58554;52.006;5.926;2023-05-23T04:10:34;9.27;;;5.30;;
70908;SDS011;58554;52.006;5.926;2023-05-23T04:13:01;10.90;;;5.43;;
70908;SDS011;58554;52.006;5.926;2023-05-23T04:15:27;11.60;;;5.72;;
70908;SDS011;58554;52.006;5.926;2023-05-23T04:17:56;10.32;;;5.38;;
70908;SDS011;58554;52.006;5.926;2023-05-23T04:20:22;9.60;;;5.13;;
70908;SDS011;58554;52.006;5.926;2023-05-23T04:22:49;10.00;;;5.40;;
70908;SDS011;58554;52.006;5.926;2023-05-23T04:25:15;11.35;;;5.47;;
70908;SDS011;58554;52.006;5.926;2023-05-23T04:27:42;10.13;;;5.40;;
70908;SDS011;58554;52.006;5.926;2023-05-23T04:30:09;10.23;;;5.38;;
70908;SDS011;58554;52.006;5.926;2023-05-23T04:32:37;13.52;;;6.18;;
70908;SDS011;58554;52.006;5.926;2023-05-23T04:35:07;14.23;;;6.32;;
70908;SDS011;58554;52.006;5.926;2023-05-23T04:37:34;13.15;;;5.68;;
70908;SDS011;58554;52.006;5.926;2023-05-23T04:40:01;14.38;;;6.05;;
70908;SDS011;58554;52.006;5.926;2023-05-23T04:42:28;11.50;;;5.53;;
70908;SDS011;58554;52.006;5.926;2023-05-23T04:44:54;12.77;;;5.97;;
70908;SDS011;58554;52.006;5.926;2023-05-23T04:47:21;12.73;;;6.03;;
70908;SDS011;58554;52.006;5.926;2023-05-23T04:49:47;14.60;;;6.47;;
70908;SDS011;58554;52.006;5.926;2023-05-23T04:52:16;12.20;;;6.05;;
70908;SDS011;58554;52.006;5.926;2023-05-23T04:54:43;14.38;;;5.88;;
70908;SDS011;58554;52.006;5.926;2023-05-23T04:57:10;14.93;;;6.00;;
70908;SDS011;58554;52.006;5.926;2023-05-23T04:59:37;11.50;;;5.70;;
70908;SDS011;58554;52.006;5.926;2023-05-23T05:02:04;13.60;;;5.80;;
70908;SDS011;58554;52.006;5.926;2023-05-23T05:04:31;14.98;;;5.78;;
70908;SDS011;58554;52.006;5.926;2023-05-23T05:06:57;16.60;;;6.20;;
70908;SDS011;58554;52.006;5.926;2023-05-23T05:09:26;15.33;;;5.97;;
70908;SDS011;58554;52.006;5.926;2023-05-23T05:11:53;13.40;;;5.57;;
70908;SDS011;58554;52.006;5.926;2023-05-23T05:14:19;10.17;;;5.33;;
70908;SDS011;58554;52.006;5.926;2023-05-23T05:16:46;12.57;;;5.97;;
70908;SDS011;58554;52.006;5.926;2023-05-23T05:19:12;12.30;;;5.17;;
70908;SDS011;58554;52.006;5.926;2023-05-23T05:21:39;18.25;;;5.97;;
70908;SDS011;58554;52.006;5.926;2023-05-23T05:24:05;15.15;;;5.50;;
70908;SDS011;58554;52.006;5.926;2023-05-23T05:26:34;11.98;;;5.05;;
70908;SDS011;58554;52.006;5.926;2023-05-23T05:29:01;11.03;;;5.50;;
70908;SDS011;58554;52.006;5.926;2023-05-23T05:31:28;13.27;;;5.20;;
70908;SDS011;58554;52.006;5.926;2023-05-23T05:33:55;10.43;;;5.25;;
70908;SDS011;58554;52.006;5.926;2023-05-23T05:36:21;12.27;;;5.13;;
70908;SDS011;58554;52.006;5.926;2023-05-23T05:38:47;10.75;;;4.80;;
70908;SDS011;58554;52.006;5.926;2023-05-23T05:41:14;12.00;;;5.22;;
70908;SDS011;58554;52.006;5.926;2023-05-23T05:43:43;13.80;;;4.80;;
70908;SDS011;58554;52.006;5.926;2023-05-23T05:46:10;11.68;;;4.60;;
70908;SDS011;58554;52.006;5.926;2023-05-23T05:48:36;9.57;;;4.38;;
70908;SDS011;58554;52.006;5.926;2023-05-23T05:51:03;10.18;;;4.72;;
70908;SDS011;58554;52.006;5.926;2023-05-23T05:53:30;10.80;;;4.60;;
70908;SDS011;58554;52.006;5.926;2023-05-23T05:55:56;13.43;;;5.00;;
70908;SDS011;58554;52.006;5.926;2023-05-23T05:58:23;12.77;;;4.57;;
70908;SDS011;58554;52.006;5.926;2023-05-23T06:00:52;11.57;;;5.20;;
70908;SDS011;58554;52.006;5.926;2023-05-23T06:03:20;12.45;;;4.80;;
70908;SDS011;58554;52.006;5.926;2023-05-23T06:05:46;10.82;;;4.28;;
70908;SDS011;58554;52.006;5.926;2023-05-23T06:08:13;9.47;;;4.40;;
70908;SDS011;58554;52.006;5.926;2023-05-23T06:10:39;10.32;;;4.53;;
70908;SDS011;58554;52.006;5.926;2023-05-23T06:13:06;11.88;;;5.03;;
70908;SDS011;58554;52.006;5.926;2023-05-23T06:15:32;9.80;;;4.37;;
70908;SDS011;58554;52.006;5.926;2023-05-23T06:18:01;10.18;;;4.68;;
70908;SDS011;58554;52.006;5.926;2023-05-23T06:20:28;9.18;;;4.40;;
70908;SDS011;58554;52.006;5.926;2023-05-23T06:22:54;10.13;;;4.53;;
70908;SDS011;58554;52.006;5.926;2023-05-23T06:25:21;10.30;;;4.35;;
70908;SDS011;58554;52.006;5.926;2023-05-23T06:27:47;11.03;;;4.50;;
70908;SDS011;58554;52.006;5.926;2023-05-23T06:30:14;11.53;;;4.10;;
70908;SDS011;58554;52.006;5.926;2023-05-23T06:32:41;11.63;;;4.63;;
70908;SDS011;58554;52.006;5.926;2023-05-23T06:35:10;10.33;;;4.53;;
70908;SDS011;58554;52.006;5.926;2023-05-23T06:37:37;9.85;;;4.15;;
70908;SDS011;58554;52.006;5.926;2023-05-23T06:40:04;10.05;;;4.70;;
70908;SDS011;58554;52.006;5.926;2023-05-23T06:42:32;10.23;;;3.92;;
70908;SDS011;58554;52.006;5.926;2023-05-23T06:44:58;7.82;;;4.38;;
70908;SDS011;58554;52.006;5.926;2023-05-23T06:47:25;11.68;;;4.18;;
70908;SDS011;58554;52.006;5.926;2023-05-23T06:49:51;9.57;;;4.68;;
70908;SDS011;58554;52.006;5.926;2023-05-23T06:52:20;8.73;;;4.23;;
70908;SDS011;58554;52.006;5.926;2023-05-23T06:54:47;10.47;;;4.20;;
70908;SDS011;58554;52.006;5.926;2023-05-23T06:57:13;11.02;;;4.65;;
70908;SDS011;58554;52.006;5.926;2023-05-23T06:59:40;11.63;;;4.47;;
70908;SDS011;58554;52.006;5.926;2023-05-23T07:02:07;10.88;;;4.00;;
70908;SDS011;58554;52.006;5.926;2023-05-23T07:04:33;10.13;;;4.00;;
70908;SDS011;58554;52.006;5.926;2023-05-23T07:07:00;8.20;;;3.75;;
70908;SDS011;58554;52.006;5.926;2023-05-23T07:09:29;9.18;;;3.88;;
70908;SDS011;58554;52.006;5.926;2023-05-23T07:11:55;11.93;;;4.00;;
70908;SDS011;58554;52.006;5.926;2023-05-23T07:14:22;8.50;;;3.33;;
70908;SDS011;58554;52.006;5.926;2023-05-23T07:16:48;10.18;;;4.03;;
70908;SDS011;58554;52.006;5.926;2023-05-23T07:19:15;10.27;;;4.20;;
70908;SDS011;58554;52.006;5.926;2023-05-23T07:21:41;8.82;;;3.70;;
70908;SDS011;58554;52.006;5.926;2023-05-23T07:24:08;7.60;;;3.50;;
70908;SDS011;58554;52.006;5.926;2023-05-23T07:26:37;11.15;;;4.03;;
70908;SDS011;58554;52.006;5.926;2023-05-23T07:29:03;11.20;;;4.20;;
70908;SDS011;58554;52.006;5.926;2023-05-23T07:31:30;7.80;;;3.90;;
70908;SDS011;58554;52.006;5.926;2023-05-23T07:33:56;12.50;;;4.50;;
70908;SDS011;58554;52.006;5.926;2023-05-23T07:36:23;8.20;;;3.67;;
70908;SDS011;58554;52.006;5.926;2023-05-23T07:38:49;8.43;;;3.65;;
70908;SDS011;58554;52.006;5.926;2023-05-23T07:41:16;6.83;;;3.40;;
70908;SDS011;58554;52.006;5.926;2023-05-23T07:43:45;8.17;;;3.87;;
70908;SDS011;58554;52.006;5.926;2023-05-23T07:46:11;7.55;;;3.63;;
70908;SDS011;58554;52.006;5.926;2023-05-23T07:48:38;8.27;;;3.80;;
70908;SDS011;58554;52.006;5.926;2023-05-23T07:51:04;6.53;;;3.63;;
70908;SDS011;58554;52.006;5.926;2023-05-23T07:53:31;6.40;;;3.08;;
70908;SDS011;58554;52.006;5.926;2023-05-23T07:55:57;8.00;;;3.10;;
70908;SDS011;58554;52.006;5.926;2023-05-23T07:58:24;6.40;;;2.83;;
70908;SDS011;58554;52.006;5.926;2023-05-23T08:00:53;7.87;;;2.90;;
70908;SDS011;58554;52.006;5.926;2023-05-23T08:03:19;9.68;;;3.17;;
70908;SDS011;58554;52.006;5.926;2023-05-23T08:05:46;6.05;;;2.80;;
70908;SDS011;58554;52.006;5.926;2023-05-23T08:08:12;5.93;;;2.70;;
70908;SDS011;58554;52.006;5.926;2023-05-23T08:10:39;6.00;;;2.63;;
70908;SDS011;58554;52.006;5.926;2023-05-23T08:13:05;6.13;;;2.65;;
70908;SDS011;58554;52.006;5.926;2023-05-23T08:15:34;8.32;;;2.58;;
70908;SDS011;58554;52.006;5.926;2023-05-23T08:18:03;8.20;;;2.50;;
70908;SDS011;58554;52.006;5.926;2023-05-23T08:20:30;7.07;;;2.50;;
70908;SDS011;58554;52.006;5.926;2023-05-23T08:22:57;4.53;;;2.40;;
70908;SDS011;58554;52.006;5.926;2023-05-23T08:25:24;8.60;;;2.83;;
70908;SDS011;58554;52.006;5.926;2023-05-23T08:27:51;6.10;;;2.50;;
70908;SDS011;58554;52.006;5.926;2023-05-23T08:30:17;7.00;;;2.50;;
70908;SDS011;58554;52.006;5.926;2023-05-23T08:32:44;5.63;;;2.13;;
70908;SDS011;58554;52.006;5.926;2023-05-23T08:35:13;5.90;;;2.00;;
70908;SDS011;58554;52.006;5.926;2023-05-23T08:37:39;6.15;;;2.00;;
70908;SDS011;58554;52.006;5.926;2023-05-23T08:40:07;8.73;;;2.35;;
70908;SDS011;58554;52.006;5.926;2023-05-23T08:42:39;6.60;;;2.55;;
70908;SDS011;58554;52.006;5.926;2023-05-23T08:45:06;4.82;;;1.92;;
70908;SDS011;58554;52.006;5.926;2023-05-23T08:47:35;6.00;;;2.27;;
70908;SDS011;58554;52.006;5.926;2023-05-23T08:50:03;5.80;;;2.25;;
70908;SDS011;58554;52.006;5.926;2023-05-23T08:52:34;7.47;;;2.40;;
70908;SDS011;58554;52.006;5.926;2023-05-23T08:55:10;7.93;;;2.30;;
70908;SDS011;58554;52.006;5.926;2023-05-23T08:57:37;9.77;;;2.50;;
70908;SDS011;58554;52.006;5.926;2023-05-23T09:00:06;7.30;;;2.42;;
70908;SDS011;58554;52.006;5.926;2023-05-23T09:02:35;8.65;;;2.45;;
70908;SDS011;58554;52.006;5.926;2023-05-23T09:05:04;8.77;;;2.50;;
70908;SDS011;58554;52.006;5.926;2023-05-23T09:07:34;9.20;;;2.42;;
70908;SDS011;58554;52.006;5.926;2023-05-23T09:10:01;8.70;;;2.58;;
70908;SDS011;58554;52.006;5.926;2023-05-23T09:12:30;8.32;;;2.58;;
70908;SDS011;58554;52.006;5.926;2023-05-23T09:14:56;11.57;;;2.60;;
70908;SDS011;58554;52.006;5.926;2023-05-23T09:17:23;5.80;;;2.00;;
70908;SDS011;58554;52.006;5.926;2023-05-23T09:19:49;7.93;;;2.10;;
70908;SDS011;58554;52.006;5.926;2023-05-23T09:22:16;9.55;;;2.30;;
70908;SDS011;58554;52.006;5.926;2023-05-23T09:24:52;6.53;;;2.00;;
70908;SDS011;58554;52.006;5.926;2023-05-23T09:27:21;5.23;;;2.10;;
70908;SDS011;58554;52.006;5.926;2023-05-23T09:29:48;7.20;;;2.15;;
70908;SDS011;58554;52.006;5.926;2023-05-23T09:32:15;5.97;;;2.40;;
70908;SDS011;58554;52.006;5.926;2023-05-23T09:34:53;8.88;;;2.38;;
70908;SDS011;58554;52.006;5.926;2023-05-23T09:37:23;6.97;;;2.40;;
70908;SDS011;58554;52.006;5.926;2023-05-23T09:39:58;4.50;;;2.10;;
70908;SDS011;58554;52.006;5.926;2023-05-23T09:42:30;6.05;;;2.20;;
70908;SDS011;58554;52.006;5.926;2023-05-23T09:44:58;7.17;;;2.17;;
70908;SDS011;58554;52.006;5.926;2023-05-23T09:47:25;6.40;;;2.60;;
70908;SDS011;58554;52.006;5.926;2023-05-23T09:49:52;9.45;;;2.60;;
70908;SDS011;58554;52.006;5.926;2023-05-23T09:52:19;7.93;;;2.55;;
70908;SDS011;58554;52.006;5.926;2023-05-23T09:54:46;7.63;;;2.40;;
70908;SDS011;58554;52.006;5.926;2023-05-23T09:57:15;7.07;;;2.20;;
70908;SDS011;58554;52.006;5.926;2023-05-23T09:59:44;7.90;;;2.53;;
70908;SDS011;58554;52.006;5.926;2023-05-23T10:02:29;6.65;;;2.20;;
70908;SDS011;58554;52.006;5.926;2023-05-23T10:05:23;8.93;;;2.63;;
70908;SDS011;58554;52.006;5.926;2023-05-23T10:07:58;10.57;;;2.20;;
70908;SDS011;58554;52.006;5.926;2023-05-23T10:10:30;7.38;;;2.45;;
70908;SDS011;58554;52.006;5.926;2023-05-23T10:13:01;7.18;;;2.47;;
70908;SDS011;58554;52.006;5.926;2023-05-23T10:15:33;8.15;;;2.50;;
70908;SDS011;58554;52.006;5.926;2023-05-23T10:18:06;10.52;;;2.38;;
70908;SDS011;58554;52.006;5.926;2023-05-23T10:20:42;6.65;;;2.17;;
70908;SDS011;58554;52.006;5.926;2023-05-23T10:23:13;5.70;;;2.60;;
70908;SDS011;58554;52.006;5.926;2023-05-23T10:25:41;6.60;;;2.78;;
70908;SDS011;58554;52.006;5.926;2023-05-23T10:28:13;6.77;;;2.20;;
70908;SDS011;58554;52.006;5.926;2023-05-23T10:30:41;7.20;;;2.40;;
70908;SDS011;58554;52.006;5.926;2023-05-23T10:33:08;6.97;;;2.47;;
70908;SDS011;58554;52.006;5.926;2023-05-23T10:35:40;8.23;;;2.53;;
70908;SDS011;58554;52.006;5.926;2023-05-23T10:38:21;9.15;;;2.33;;
70908;SDS011;58554;52.006;5.926;2023-05-23T10:41:04;8.32;;;2.65;;
70908;SDS011;58554;52.006;5.926;2023-05-23T10:43:43;7.22;;;2.30;;
70908;SDS011;58554;52.006;5.926;2023-05-23T10:46:20;7.17;;;2.10;;
70908;SDS011;58554;52.006;5.926;2023-05-23T10:48:47;8.32;;;2.13;;
70908;SDS011;58554;52.006;5.926;2023-05-23T10:51:20;4.30;;;2.00;;
70908;SDS011;58554;52.006;5.926;2023-05-23T10:53:52;9.25;;;3.03;;
70908;SDS011;58554;52.006;5.926;2023-05-23T10:56:20;5.85;;;2.28;;
70908;SDS011;58554;52.006;5.926;2023-05-23T10:58:53;8.48;;;2.38;;
70908;SDS011;58554;52.006;5.926;2023-05-23T11:01:22;5.95;;;2.28;;
70908;SDS011;58554;52.006;5.926;2023-05-23T11:03:50;7.27;;;2.27;;
70908;SDS011;58554;52.006;5.926;2023-05-23T11:06:27;7.37;;;2.97;;
70908;SDS011;58554;52.006;5.926;2023-05-23T11:09:01;4.88;;;2.08;;
70908;SDS011;58554;52.006;5.926;2023-05-23T11:14:30;9.00;;;2.65;;
70908;SDS011;58554;52.006;5.926;2023-05-23T11:16:58;6.95;;;2.70;;
70908;SDS011;58554;52.006;5.926;2023-05-23T11:19:39;6.30;;;2.40;;
70908;SDS011;58554;52.006;5.926;2023-05-23T11:22:26;8.10;;;2.40;;
70908;SDS011;58554;52.006;5.926;2023-05-23T11:24:53;8.02;;;2.45;;
70908;SDS011;58554;52.006;5.926;2023-05-23T11:27:25;7.80;;;2.60;;
70908;SDS011;58554;52.006;5.926;2023-05-23T11:30:01;8.03;;;2.50;;
70908;SDS011;58554;52.006;5.926;2023-05-23T11:32:32;8.33;;;2.43;;
70908;SDS011;58554;52.006;5.926;2023-05-23T11:34:59;6.03;;;2.22;;
70908;SDS011;58554;52.006;5.926;2023-05-23T11:37:26;6.28;;;2.65;;
70908;SDS011;58554;52.006;5.926;2023-05-23T11:39:54;8.57;;;2.60;;
70908;SDS011;58554;52.006;5.926;2023-05-23T11:42:21;9.02;;;2.63;;
70908;SDS011;58554;52.006;5.926;2023-05-23T11:44:48;7.93;;;2.55;;
70908;SDS011;58554;52.006;5.926;2023-05-23T11:47:18;6.75;;;2.30;;
70908;SDS011;58554;52.006;5.926;2023-05-23T11:49:45;7.67;;;2.47;;
70908;SDS011;58554;52.006;5.926;2023-05-23T11:52:12;10.25;;;2.90;;
70908;SDS011;58554;52.006;5.926;2023-05-23T11:54:40;5.25;;;2.00;;
70908;SDS011;58554;52.006;5.926;2023-05-23T11:57:07;6.22;;;2.30;;
70908;SDS011;58554;52.006;5.926;2023-05-23T11:59:33;5.78;;;2.15;;
70908;SDS011;58554;52.006;5.926;2023-05-23T12:02:01;6.30;;;3.13;;
70908;SDS011;58554;52.006;5.926;2023-05-23T12:04:30;8.95;;;2.65;;
70908;SDS011;58554;52.006;5.926;2023-05-23T12:06:59;4.80;;;2.33;;
70908;SDS011;58554;52.006;5.926;2023-05-23T12:09:30;8.55;;;2.60;;
70908;SDS011;58554;52.006;5.926;2023-05-23T12:11:57;7.80;;;2.60;;
70908;SDS011;58554;52.006;5.926;2023-05-23T12:14:24;7.63;;;2.20;;
70908;SDS011;58554;52.006;5.926;2023-05-23T12:16:53;6.63;;;2.40;;
70908;SDS011;58554;52.006;5.926;2023-05-23T12:19:20;7.00;;;2.25;;
70908;SDS011;58554;52.006;5.926;2023-05-23T12:21:49;5.93;;;2.33;;
70908;SDS011;58554;52.006;5.926;2023-05-23T12:24:16;7.47;;;2.53;;
70908;SDS011;58554;52.006;5.926;2023-05-23T12:26:45;6.25;;;2.42;;
70908;SDS011;58554;52.006;5.926;2023-05-23T12:29:17;5.87;;;2.30;;
70908;SDS011;58554;52.006;5.926;2023-05-23T12:31:48;8.67;;;2.57;;
70908;SDS011;58554;52.006;5.926;2023-05-23T12:34:16;4.85;;;1.92;;
70908;SDS011;58554;52.006;5.926;2023-05-23T12:36:45;5.63;;;2.13;;
70908;SDS011;58554;52.006;5.926;2023-05-23T12:39:14;7.82;;;2.60;;
70908;SDS011;58554;52.006;5.926;2023-05-23T12:41:41;6.43;;;2.15;;
70908;SDS011;58554;52.006;5.926;2023-05-23T12:44:07;8.13;;;2.30;;
70908;SDS011;58554;52.006;5.926;2023-05-23T12:46:34;5.90;;;2.08;;
70908;SDS011;58554;52.006;5.926;2023-05-23T12:49:01;8.03;;;2.60;;
70908;SDS011;58554;52.006;5.926;2023-05-23T12:51:27;5.15;;;2.30;;
70908;SDS011;58554;52.006;5.926;2023-05-23T12:53:54;6.57;;;2.13;;
70908;SDS011;58554;52.006;5.926;2023-05-23T12:56:24;6.18;;;1.98;;
70908;SDS011;58554;52.006;5.926;2023-05-23T12:58:50;10.45;;;2.33;;
70908;SDS011;58554;52.006;5.926;2023-05-23T13:01:17;5.53;;;2.27;;
70908;SDS011;58554;52.006;5.926;2023-05-23T13:03:44;8.13;;;2.50;;
70908;SDS011;58554;52.006;5.926;2023-05-23T13:06:10;6.53;;;2.10;;
70908;SDS011;58554;52.006;5.926;2023-05-23T13:08:37;5.90;;;2.20;;
70908;SDS011;58554;52.006;5.926;2023-05-23T13:11:04;5.72;;;2.10;;
70908;SDS011;58554;52.006;5.926;2023-05-23T13:13:33;5.10;;;2.03;;
70908;SDS011;58554;52.006;5.926;2023-05-23T13:15:59;5.27;;;2.10;;
70908;SDS011;58554;52.006;5.926;2023-05-23T13:18:26;4.75;;;2.13;;
70908;SDS011;58554;52.006;5.926;2023-05-23T13:20:53;4.97;;;2.23;;
70908;SDS011;58554;52.006;5.926;2023-05-23T13:23:19;5.33;;;1.97;;
70908;SDS011;58554;52.006;5.926;2023-05-23T13:25:46;5.45;;;2.17;;
70908;SDS011;58554;52.006;5.926;2023-05-23T13:28:12;7.70;;;2.15;;
70908;SDS011;58554;52.006;5.926;2023-05-23T13:30:41;9.00;;;1.93;;
70908;SDS011;58554;52.006;5.926;2023-05-23T13:33:08;4.90;;;2.10;;
70908;SDS011;58554;52.006;5.926;2023-05-23T13:35:34;5.78;;;2.05;;
70908;SDS011;58554;52.006;5.926;2023-05-23T13:38:01;4.40;;;2.00;;
70908;SDS011;58554;52.006;5.926;2023-05-23T13:40:28;6.78;;;2.38;;
70908;SDS011;58554;52.006;5.926;2023-05-23T13:42:54;8.98;;;2.38;;
70908;SDS011;58554;52.006;5.926;2023-05-23T13:45:21;5.18;;;2.05;;
70908;SDS011;58554;52.006;5.926;2023-05-23T13:47:50;5.60;;;1.95;;
70908;SDS011;58554;52.006;5.926;2023-05-23T13:50:16;5.72;;;2.20;;
70908;SDS011;58554;52.006;5.926;2023-05-23T13:52:43;7.03;;;2.00;;
70908;SDS011;58554;52.006;5.926;2023-05-23T13:55:10;9.47;;;2.30;;
70908;SDS011;58554;52.006;5.926;2023-05-23T13:57:36;5.00;;;2.00;;
70908;SDS011;58554;52.006;5.926;2023-05-23T14:00:04;6.70;;;2.20;;
70908;SDS011;58554;52.006;5.926;2023-05-23T14:02:32;5.07;;;2.25;;
70908;SDS011;58554;52.006;5.926;2023-05-23T14:05:02;6.05;;;2.03;;
70908;SDS011;58554;52.006;5.926;2023-05-23T14:07:29;5.43;;;2.10;;
70908;SDS011;58554;52.006;5.926;2023-05-23T14:09:56;7.18;;;2.30;;
70908;SDS011;58554;52.006;5.926;2023-05-23T14:12:22;5.22;;;1.90;;
70908;SDS011;58554;52.006;5.926;2023-05-23T14:14:49;6.05;;;2.17;;
70908;SDS011;58554;52.006;5.926;2023-05-23T14:17:15;7.15;;;2.20;;
70908;SDS011;58554;52.006;5.926;2023-05-23T14:19:42;4.80;;;1.80;;
70908;SDS011;58554;52.006;5.926;2023-05-23T14:22:12;6.80;;;2.40;;
70908;SDS011;58554;52.006;5.926;2023-05-23T14:24:38;6.03;;;2.33;;
70908;SDS011;58554;52.006;5.926;2023-05-23T14:27:05;6.97;;;2.43;;
70908;SDS011;58554;52.006;5.926;2023-05-23T14:29:31;9.80;;;2.65;;
70908;SDS011;58554;52.006;5.926;2023-05-23T14:31:58;6.80;;;2.50;;
70908;SDS011;58554;52.006;5.926;2023-05-23T14:34:24;7.43;;;2.73;;
70908;SDS011;58554;52.006;5.926;2023-05-23T14:36:51;6.77;;;2.40;;
70908;SDS011;58554;52.006;5.926;2023-05-23T14:39:20;8.80;;;2.35;;
70908;SDS011;58554;52.006;5.926;2023-05-23T14:41:46;8.70;;;2.55;;
70908;SDS011;58554;52.006;5.926;2023-05-23T14:44:13;8.45;;;2.53;;
70908;SDS011;58554;52.006;5.926;2023-05-23T14:46:39;7.63;;;2.83;;
70908;SDS011;58554;52.006;5.926;2023-05-23T14:49:06;6.73;;;2.20;;
70908;SDS011;58554;52.006;5.926;2023-05-23T14:51:32;6.27;;;2.00;;